sensor_id;sensor_type;location;lat;lon;timestamp;pressure;altitude;pressure_sealevel;temperature;humidity
64294;BME280;50636;45.596;5.258;2022-09-29T00:00:10;97196.81;;;14.57;97.70
64294;BME280;50636;45.596;5.258;2022-09-29T00:02:36;97192.06;;;14.80;98.99
64294;BME280;50636;45.596;5.258;2022-09-29T00:05:01;97200.00;;;14.90;99.16
64294;BME280;50636;45.596;5.258;2022-09-29T00:07:28;97211.09;;;14.77;98.27
64294;BME280;50636;45.596;5.258;2022-09-29T00:09:54;97205.00;;;14.66;98.37
64294;BME280;50636;45.596;5.258;2022-09-29T00:12:19;97207.13;;;14.69;99.23
64294;BME280;50636;45.596;5.258;2022-09-29T00:14:45;97204.75;;;14.68;99.28
64294;BME280;50636;45.596;5.258;2022-09-29T00:17:11;97199.97;;;14.65;99.14
64294;BME280;50636;45.596;5.258;2022-09-29T00:19:38;97193.88;;;14.54;98.75
64294;BME280;50636;45.596;5.258;2022-09-29T00:22:03;97194.38;;;14.41;98.31
64294;BME280;50636;45.596;5.258;2022-09-29T00:24:29;97190.72;;;14.47;98.99
64294;BME280;50636;45.596;5.258;2022-09-29T00:26:55;97189.38;;;14.39;98.51
64294;BME280;50636;45.596;5.258;2022-09-29T00:29:21;97183.81;;;14.35;98.57
64294;BME280;50636;45.596;5.258;2022-09-29T00:31:47;97180.09;;;14.21;97.66
64294;BME280;50636;45.596;5.258;2022-09-29T00:34:13;97176.09;;;14.08;97.35
64294;BME280;50636;45.596;5.258;2022-09-29T00:36:38;97173.53;;;14.29;98.89
64294;BME280;50636;45.596;5.258;2022-09-29T00:39:04;97171.38;;;14.15;98.19
64294;BME280;50636;45.596;5.258;2022-09-29T00:41:33;97170.00;;;13.92;97.34
64294;BME280;50636;45.596;5.258;2022-09-29T00:49:17;97163.72;;;13.41;97.78
64294;BME280;50636;45.596;5.258;2022-09-29T00:51:54;97156.59;;;13.41;97.98
64294;BME280;50636;45.596;5.258;2022-09-29T00:54:23;97162.03;;;13.77;99.83
64294;BME280;50636;45.596;5.258;2022-09-29T00:56:53;97161.91;;;14.30;100.00
64294;BME280;50636;45.596;5.258;2022-09-29T00:59:31;97155.38;;;14.73;100.00
64294;BME280;50636;45.596;5.258;2022-09-29T01:02:00;97151.94;;;14.78;100.00
64294;BME280;50636;45.596;5.258;2022-09-29T01:04:26;97144.03;;;14.68;98.42
64294;BME280;50636;45.596;5.258;2022-09-29T01:06:55;97142.94;;;14.58;97.59
64294;BME280;50636;45.596;5.258;2022-09-29T01:09:31;97149.53;;;14.46;96.42
64294;BME280;50636;45.596;5.258;2022-09-29T01:11:59;97150.56;;;14.34;96.11
64294;BME280;50636;45.596;5.258;2022-09-29T01:14:28;97145.00;;;14.26;95.81
64294;BME280;50636;45.596;5.258;2022-09-29T01:16:55;97144.75;;;14.27;96.36
64294;BME280;50636;45.596;5.258;2022-09-29T01:19:35;97141.59;;;14.25;96.11
64294;BME280;50636;45.596;5.258;2022-09-29T01:24:55;97142.38;;;14.21;95.45
64294;BME280;50636;45.596;5.258;2022-09-29T01:38:23;97151.38;;;14.45;96.78
64294;BME280;50636;45.596;5.258;2022-09-29T01:41:13;97152.16;;;14.41;97.10
64294;BME280;50636;45.596;5.258;2022-09-29T01:44:16;97169.03;;;14.34;97.40
64294;BME280;50636;45.596;5.258;2022-09-29T01:46:44;97179.34;;;14.31;97.80
64294;BME280;50636;45.596;5.258;2022-09-29T01:49:13;97180.09;;;14.26;98.07
64294;BME280;50636;45.596;5.258;2022-09-29T01:57:31;97193.22;;;13.95;98.47
64294;BME280;50636;45.596;5.258;2022-09-29T02:00:10;97190.34;;;13.97;99.24
64294;BME280;50636;45.596;5.258;2022-09-29T02:05:18;97187.78;;;13.54;98.68
64294;BME280;50636;45.596;5.258;2022-09-29T02:07:47;97185.59;;;13.41;98.85
64294;BME280;50636;45.596;5.258;2022-09-29T02:10:23;97188.47;;;13.39;99.01
64294;BME280;50636;45.596;5.258;2022-09-29T02:12:52;97183.69;;;13.31;99.27
64294;BME280;50636;45.596;5.258;2022-09-29T02:15:23;97191.50;;;13.21;98.83
64294;BME280;50636;45.596;5.258;2022-09-29T02:17:53;97193.06;;;13.17;99.11
64294;BME280;50636;45.596;5.258;2022-09-29T02:20:20;97195.84;;;13.00;98.75
64294;BME280;50636;45.596;5.258;2022-09-29T02:22:47;97203.41;;;12.91;99.12
64294;BME280;50636;45.596;5.258;2022-09-29T02:25:15;97197.56;;;12.84;99.15
64294;BME280;50636;45.596;5.258;2022-09-29T02:27:42;97197.56;;;12.84;99.11
64294;BME280;50636;45.596;5.258;2022-09-29T02:30:09;97202.31;;;12.82;99.57
64294;BME280;50636;45.596;5.258;2022-09-29T02:32:35;97208.84;;;12.79;99.64
64294;BME280;50636;45.596;5.258;2022-09-29T02:35:04;97212.63;;;12.89;100.00
64294;BME280;50636;45.596;5.258;2022-09-29T02:37:45;97209.81;;;13.01;100.00
64294;BME280;50636;45.596;5.258;2022-09-29T02:40:25;97214.84;;;13.02;100.00
64294;BME280;50636;45.596;5.258;2022-09-29T02:43:14;97220.81;;;12.92;99.04
64294;BME280;50636;45.596;5.258;2022-09-29T02:46:15;97212.53;;;12.78;98.23
64294;BME280;50636;45.596;5.258;2022-09-29T02:59:34;97222.53;;;12.82;98.11
64294;BME280;50636;45.596;5.258;2022-09-29T03:02:02;97218.88;;;12.83;97.91
64294;BME280;50636;45.596;5.258;2022-09-29T03:04:28;97215.19;;;12.84;97.73
64294;BME280;50636;45.596;5.258;2022-09-29T03:06:54;97219.19;;;12.86;97.95
64294;BME280;50636;45.596;5.258;2022-09-29T03:09:20;97227.38;;;12.90;97.72
64294;BME280;50636;45.596;5.258;2022-09-29T03:11:45;97226.06;;;12.92;97.44
64294;BME280;50636;45.596;5.258;2022-09-29T03:14:14;97220.56;;;12.94;97.19
64294;BME280;50636;45.596;5.258;2022-09-29T03:16:40;97215.56;;;12.97;96.68
64294;BME280;50636;45.596;5.258;2022-09-29T03:19:05;97215.84;;;12.96;96.17
64294;BME280;50636;45.596;5.258;2022-09-29T03:21:32;97215.03;;;12.95;96.38
64294;BME280;50636;45.596;5.258;2022-09-29T03:23:58;97224.53;;;12.96;96.38
64294;BME280;50636;45.596;5.258;2022-09-29T03:26:24;97220.03;;;12.97;96.08
64294;BME280;50636;45.596;5.258;2022-09-29T03:28:50;97213.22;;;12.96;95.55
64294;BME280;50636;45.596;5.258;2022-09-29T03:31:16;97220.84;;;12.97;95.99
64294;BME280;50636;45.596;5.258;2022-09-29T03:33:41;97214.78;;;12.97;95.44
64294;BME280;50636;45.596;5.258;2022-09-29T03:36:08;97216.38;;;12.98;95.01
64294;BME280;50636;45.596;5.258;2022-09-29T03:38:34;97207.66;;;12.97;95.03
64294;BME280;50636;45.596;5.258;2022-09-29T03:41:00;97211.13;;;12.98;94.70
64294;BME280;50636;45.596;5.258;2022-09-29T03:43:26;97212.19;;;13.02;94.90
64294;BME280;50636;45.596;5.258;2022-09-29T03:45:53;97222.47;;;13.04;94.50
64294;BME280;50636;45.596;5.258;2022-09-29T03:48:21;97218.75;;;12.99;94.22
64294;BME280;50636;45.596;5.258;2022-09-29T03:50:48;97222.44;;;12.98;93.82
64294;BME280;50636;45.596;5.258;2022-09-29T03:53:14;97222.94;;;12.95;93.58
64294;BME280;50636;45.596;5.258;2022-09-29T03:55:45;97233.47;;;12.95;93.25
64294;BME280;50636;45.596;5.258;2022-09-29T03:58:11;97232.97;;;12.98;93.32
64294;BME280;50636;45.596;5.258;2022-09-29T04:00:36;97229.00;;;12.96;92.53
64294;BME280;50636;45.596;5.258;2022-09-29T04:03:02;97231.88;;;12.94;92.53
64294;BME280;50636;45.596;5.258;2022-09-29T04:05:29;97236.84;;;12.91;92.24
64294;BME280;50636;45.596;5.258;2022-09-29T04:07:55;97238.72;;;12.95;93.11
64294;BME280;50636;45.596;5.258;2022-09-29T04:10:20;97234.88;;;13.08;93.41
64294;BME280;50636;45.596;5.258;2022-09-29T04:12:46;97239.22;;;13.25;93.61
64294;BME280;50636;45.596;5.258;2022-09-29T04:15:12;97232.78;;;13.43;93.35
64294;BME280;50636;45.596;5.258;2022-09-29T04:17:37;97229.69;;;13.56;92.48
64294;BME280;50636;45.596;5.258;2022-09-29T04:20:03;97237.16;;;13.69;91.93
64294;BME280;50636;45.596;5.258;2022-09-29T04:22:29;97249.06;;;13.77;91.27
64294;BME280;50636;45.596;5.258;2022-09-29T04:24:54;97246.13;;;13.73;90.23
64294;BME280;50636;45.596;5.258;2022-09-29T04:27:21;97241.31;;;13.60;90.26
64294;BME280;50636;45.596;5.258;2022-09-29T04:29:47;97238.94;;;13.58;90.89
64294;BME280;50636;45.596;5.258;2022-09-29T04:32:12;97245.59;;;13.66;90.74
64294;BME280;50636;45.596;5.258;2022-09-29T04:34:38;97251.59;;;13.56;90.08
64294;BME280;50636;45.596;5.258;2022-09-29T04:37:03;97254.16;;;13.46;90.11
64294;BME280;50636;45.596;5.258;2022-09-29T04:39:36;97263.31;;;13.38;90.03
64294;BME280;50636;45.596;5.258;2022-09-29T04:42:02;97263.63;;;13.42;90.66
64294;BME280;50636;45.596;5.258;2022-09-29T04:44:28;97264.47;;;13.53;90.94
64294;BME280;50636;45.596;5.258;2022-09-29T04:46:53;97265.84;;;13.61;90.94
64294;BME280;50636;45.596;5.258;2022-09-29T04:49:19;97267.22;;;13.73;90.80
64294;BME280;50636;45.596;5.258;2022-09-29T04:51:45;97260.69;;;13.86;90.30
64294;BME280;50636;45.596;5.258;2022-09-29T04:54:11;97260.47;;;13.98;89.73
64294;BME280;50636;45.596;5.258;2022-09-29T04:56:37;97264.22;;;14.12;89.03
64294;BME280;50636;45.596;5.258;2022-09-29T04:59:03;97256.91;;;14.25;88.30
64294;BME280;50636;45.596;5.258;2022-09-29T05:01:28;97256.41;;;14.33;88.14
64294;BME280;50636;45.596;5.258;2022-09-29T05:03:55;97270.66;;;14.42;87.44
64294;BME280;50636;45.596;5.258;2022-09-29T05:06:21;97263.84;;;14.51;86.94
64294;BME280;50636;45.596;5.258;2022-09-29T05:08:46;97275.50;;;14.66;86.96
64294;BME280;50636;45.596;5.258;2022-09-29T05:11:12;97267.63;;;14.86;86.38
64294;BME280;50636;45.596;5.258;2022-09-29T05:13:38;97272.66;;;15.08;86.08
64294;BME280;50636;45.596;5.258;2022-09-29T05:16:04;97271.59;;;14.94;83.76
64294;BME280;50636;45.596;5.258;2022-09-29T05:18:31;97280.31;;;14.89;85.21
64294;BME280;50636;45.596;5.258;2022-09-29T05:21:02;97284.53;;;15.01;84.92
64294;BME280;50636;45.596;5.258;2022-09-29T05:23:28;97290.34;;;15.03;84.98
64294;BME280;50636;45.596;5.258;2022-09-29T05:25:54;97286.94;;;15.07;86.17
64294;BME280;50636;45.596;5.258;2022-09-29T05:28:20;97298.28;;;15.28;86.53
64294;BME280;50636;45.596;5.258;2022-09-29T05:30:45;97290.34;;;15.44;87.14
64294;BME280;50636;45.596;5.258;2022-09-29T05:33:11;97297.72;;;15.57;86.07
64294;BME280;50636;45.596;5.258;2022-09-29T05:35:37;97299.88;;;15.40;85.11
64294;BME280;50636;45.596;5.258;2022-09-29T05:38:02;97299.09;;;15.34;85.31
64294;BME280;50636;45.596;5.258;2022-09-29T05:40:31;97303.56;;;15.13;84.58
64294;BME280;50636;45.596;5.258;2022-09-29T05:42:57;97300.91;;;14.92;84.61
64294;BME280;50636;45.596;5.258;2022-09-29T05:45:24;97307.50;;;14.80;84.89
64294;BME280;50636;45.596;5.258;2022-09-29T05:47:49;97303.25;;;14.73;85.49
64294;BME280;50636;45.596;5.258;2022-09-29T05:50:15;97304.59;;;14.81;86.25
64294;BME280;50636;45.596;5.258;2022-09-29T05:52:41;97306.72;;;14.89;86.56
64294;BME280;50636;45.596;5.258;2022-09-29T05:55:07;97306.47;;;15.01;87.08
64294;BME280;50636;45.596;5.258;2022-09-29T05:57:36;97303.84;;;15.32;88.08
64294;BME280;50636;45.596;5.258;2022-09-29T06:00:02;97304.34;;;15.65;87.75
64294;BME280;50636;45.596;5.258;2022-09-29T06:02:29;97309.91;;;15.84;86.70
64294;BME280;50636;45.596;5.258;2022-09-29T06:04:54;97303.03;;;15.72;84.82
64294;BME280;50636;45.596;5.258;2022-09-29T06:07:20;97309.09;;;15.73;84.74
64294;BME280;50636;45.596;5.258;2022-09-29T06:09:46;97307.78;;;15.70;84.57
64294;BME280;50636;45.596;5.258;2022-09-29T06:12:12;97312.53;;;15.63;84.19
64294;BME280;50636;45.596;5.258;2022-09-29T06:14:37;97306.72;;;15.56;84.29
64294;BME280;50636;45.596;5.258;2022-09-29T06:17:03;97317.56;;;15.65;84.69
64294;BME280;50636;45.596;5.258;2022-09-29T06:19:29;97308.81;;;15.69;84.31
64294;BME280;50636;45.596;5.258;2022-09-29T06:21:54;97301.41;;;15.71;83.49
64294;BME280;50636;45.596;5.258;2022-09-29T06:24:20;97308.84;;;15.64;83.60
64294;BME280;50636;45.596;5.258;2022-09-29T06:26:46;97304.88;;;15.56;84.26
64294;BME280;50636;45.596;5.258;2022-09-29T06:29:11;97312.53;;;15.68;84.85
64294;BME280;50636;45.596;5.258;2022-09-29T06:31:37;97304.59;;;15.73;83.10
64294;BME280;50636;45.596;5.258;2022-09-29T06:34:03;97304.59;;;15.63;83.21
64294;BME280;50636;45.596;5.258;2022-09-29T06:36:40;97307.25;;;15.63;83.12
64294;BME280;50636;45.596;5.258;2022-09-29T06:39:25;97305.66;;;15.83;83.82
64294;BME280;50636;45.596;5.258;2022-09-29T06:41:51;97307.50;;;15.87;82.83
64294;BME280;50636;45.596;5.258;2022-09-29T06:44:20;97303.81;;;15.73;81.57
64294;BME280;50636;45.596;5.258;2022-09-29T06:46:46;97302.75;;;15.69;82.97
64294;BME280;50636;45.596;5.258;2022-09-29T06:49:13;97307.25;;;15.58;83.04
64294;BME280;50636;45.596;5.258;2022-09-29T06:51:42;97304.34;;;15.54;84.50
64294;BME280;50636;45.596;5.258;2022-09-29T06:54:12;97309.13;;;15.42;84.84
64294;BME280;50636;45.596;5.258;2022-09-29T06:56:39;97309.66;;;15.29;85.79
64294;BME280;50636;45.596;5.258;2022-09-29T06:59:05;97309.09;;;15.37;87.69
64294;BME280;50636;45.596;5.258;2022-09-29T07:01:31;97313.59;;;15.62;88.08
64294;BME280;50636;45.596;5.258;2022-09-29T07:03:57;97307.75;;;15.65;87.24
64294;BME280;50636;45.596;5.258;2022-09-29T07:06:25;97314.13;;;15.59;87.50
64294;BME280;50636;45.596;5.258;2022-09-29T07:08:54;97312.31;;;15.49;87.84
64294;BME280;50636;45.596;5.258;2022-09-29T07:11:21;97315.75;;;15.40;87.74
64294;BME280;50636;45.596;5.258;2022-09-29T07:13:46;97317.06;;;15.22;87.26
64294;BME280;50636;45.596;5.258;2022-09-29T07:16:13;97326.53;;;15.02;86.71
64294;BME280;50636;45.596;5.258;2022-09-29T07:18:41;97320.19;;;14.88;87.39
64294;BME280;50636;45.596;5.258;2022-09-29T07:21:09;97325.44;;;14.83;87.92
64294;BME280;50636;45.596;5.258;2022-09-29T07:23:36;97323.34;;;14.85;88.56
64294;BME280;50636;45.596;5.258;2022-09-29T07:26:03;97326.53;;;14.92;89.02
64294;BME280;50636;45.596;5.258;2022-09-29T07:28:29;97323.38;;;15.00;88.59
64294;BME280;50636;45.596;5.258;2022-09-29T07:33:25;97327.91;;;15.25;88.77
64294;BME280;50636;45.596;5.258;2022-09-29T07:35:54;97323.94;;;15.28;88.15
64294;BME280;50636;45.596;5.258;2022-09-29T07:38:20;97332.38;;;15.20;88.20
64294;BME280;50636;45.596;5.258;2022-09-29T07:40:46;97329.72;;;15.35;89.63
64294;BME280;50636;45.596;5.258;2022-09-29T07:43:11;97323.91;;;15.33;88.63
64294;BME280;50636;45.596;5.258;2022-09-29T07:45:44;97327.34;;;15.03;88.96
64294;BME280;50636;45.596;5.258;2022-09-29T07:48:10;97326.81;;;14.95;90.62
64294;BME280;50636;45.596;5.258;2022-09-29T07:50:36;97335.28;;;15.18;92.29
64294;BME280;50636;45.596;5.258;2022-09-29T07:53:01;97323.16;;;15.37;92.93
64294;BME280;50636;45.596;5.258;2022-09-29T07:55:27;97334.50;;;15.53;92.51
64294;BME280;50636;45.596;5.258;2022-09-29T07:57:53;97329.19;;;15.58;92.33
64294;BME280;50636;45.596;5.258;2022-09-29T08:00:18;97328.69;;;15.62;91.63
64294;BME280;50636;45.596;5.258;2022-09-29T08:02:44;97333.16;;;15.66;91.60
64294;BME280;50636;45.596;5.258;2022-09-29T08:05:10;97333.97;;;15.72;91.11
64294;BME280;50636;45.596;5.258;2022-09-29T08:07:36;97334.22;;;15.70;89.95
64294;BME280;50636;45.596;5.258;2022-09-29T08:10:02;97341.13;;;15.56;89.52
64294;BME280;50636;45.596;5.258;2022-09-29T08:12:28;97334.22;;;15.55;89.74
64294;BME280;50636;45.596;5.258;2022-09-29T08:14:54;97343.50;;;15.57;89.48
64294;BME280;50636;45.596;5.258;2022-09-29T08:17:19;97343.47;;;15.47;88.81
64294;BME280;50636;45.596;5.258;2022-09-29T08:19:45;97342.97;;;15.50;89.21
64294;BME280;50636;45.596;5.258;2022-09-29T08:22:14;97346.66;;;15.60;88.87
64294;BME280;50636;45.596;5.258;2022-09-29T08:24:39;97350.59;;;15.67;88.54
64294;BME280;50636;45.596;5.258;2022-09-29T08:27:06;97354.88;;;15.48;87.01
64294;BME280;50636;45.596;5.258;2022-09-29T08:29:32;97351.41;;;15.37;87.61
64294;BME280;50636;45.596;5.258;2022-09-29T08:31:58;97347.19;;;15.41;86.44
64294;BME280;50636;45.596;5.258;2022-09-29T08:34:23;97349.31;;;15.49;86.04
64294;BME280;50636;45.596;5.258;2022-09-29T08:36:49;97353.78;;;15.49;84.06
64294;BME280;50636;45.596;5.258;2022-09-29T08:39:16;97359.59;;;15.61;85.83
64294;BME280;50636;45.596;5.258;2022-09-29T08:42:01;97355.13;;;15.92;86.20
64294;BME280;50636;45.596;5.258;2022-09-29T08:44:57;97360.06;;;16.25;86.52
64294;BME280;50636;45.596;5.258;2022-09-29T08:47:38;97358.94;;;16.46;84.53
64294;BME280;50636;45.596;5.258;2022-09-29T08:52:42;97362.63;;;16.45;82.42
64294;BME280;50636;45.596;5.258;2022-09-29T08:57:40;97364.66;;;16.69;82.44
64294;BME280;50636;45.596;5.258;2022-09-29T09:00:14;97369.19;;;16.68;81.67
64294;BME280;50636;45.596;5.258;2022-09-29T09:11:35;97375.06;;;16.55;86.35
64294;BME280;50636;45.596;5.258;2022-09-29T09:19:35;97379.75;;;16.73;85.71
64294;BME280;50636;45.596;5.258;2022-09-29T09:24:48;97385.34;;;16.62;83.77
64294;BME280;50636;45.596;5.258;2022-09-29T09:27:25;97383.53;;;16.57;84.19
64294;BME280;50636;45.596;5.258;2022-09-29T09:30:22;97382.53;;;16.37;84.43
64294;BME280;50636;45.596;5.258;2022-09-29T09:32:57;97380.91;;;16.42;85.50
64294;BME280;50636;45.596;5.258;2022-09-29T09:35:46;97382.47;;;16.48;83.97
64294;BME280;50636;45.596;5.258;2022-09-29T09:38:56;97382.50;;;16.43;82.89
64294;BME280;50636;45.596;5.258;2022-09-29T09:41:21;97381.38;;;16.59;81.38
64294;BME280;50636;45.596;5.258;2022-09-29T09:43:54;97384.50;;;16.76;80.68
64294;BME280;50636;45.596;5.258;2022-09-29T09:46:44;97384.22;;;16.78;81.83
64294;BME280;50636;45.596;5.258;2022-09-29T09:51:41;97380.13;;;17.06;84.45
64294;BME280;50636;45.596;5.258;2022-09-29T09:54:15;97383.03;;;17.44;82.85
64294;BME280;50636;45.596;5.258;2022-09-29T10:01:58;97385.81;;;17.98;76.43
64294;BME280;50636;45.596;5.258;2022-09-29T10:04:24;97390.97;;;17.89;76.86
64294;BME280;50636;45.596;5.258;2022-09-29T10:06:54;97382.31;;;17.73;76.42
64294;BME280;50636;45.596;5.258;2022-09-29T10:09:22;97377.53;;;17.70;73.95
64294;BME280;50636;45.596;5.258;2022-09-29T10:11:48;97386.13;;;17.22;72.84
64294;BME280;50636;45.596;5.258;2022-09-29T10:14:27;97377.31;;;16.87;76.98
64294;BME280;50636;45.596;5.258;2022-09-29T10:17:05;97382.44;;;16.63;80.06
64294;BME280;50636;45.596;5.258;2022-09-29T10:20:02;97377.97;;;16.53;83.38
64294;BME280;50636;45.596;5.258;2022-09-29T10:22:31;97384.00;;;16.69;85.66
64294;BME280;50636;45.596;5.258;2022-09-29T10:25:18;97384.75;;;16.85;85.11
64294;BME280;50636;45.596;5.258;2022-09-29T10:27:53;97382.81;;;16.96;86.06
64294;BME280;50636;45.596;5.258;2022-09-29T10:30:33;97377.97;;;17.13;86.32
64294;BME280;50636;45.596;5.258;2022-09-29T10:33:04;97377.66;;;17.20;86.36
64294;BME280;50636;45.596;5.258;2022-09-29T10:35:39;97377.19;;;17.13;85.42
64294;BME280;50636;45.596;5.258;2022-09-29T10:38:26;97383.97;;;16.85;84.34
64294;BME280;50636;45.596;5.258;2022-09-29T10:40:58;97380.34;;;16.60;83.59
64294;BME280;50636;45.596;5.258;2022-09-29T10:43:35;97382.50;;;16.43;82.75
64294;BME280;50636;45.596;5.258;2022-09-29T10:46:32;97379.81;;;16.53;82.94
64294;BME280;50636;45.596;5.258;2022-09-29T10:49:13;97382.16;;;16.65;81.15
64294;BME280;50636;45.596;5.258;2022-09-29T10:51:47;97385.81;;;16.79;80.17
64294;BME280;50636;45.596;5.258;2022-09-29T10:54:20;97376.75;;;16.95;80.44
64294;BME280;50636;45.596;5.258;2022-09-29T10:56:56;97379.81;;;17.13;78.87
64294;BME280;50636;45.596;5.258;2022-09-29T10:59:23;97379.97;;;17.32;78.78
64294;BME280;50636;45.596;5.258;2022-09-29T11:01:54;97380.19;;;17.41;77.75
64294;BME280;50636;45.596;5.258;2022-09-29T11:06:52;97381.38;;;17.19;77.71
64294;BME280;50636;45.596;5.258;2022-09-29T11:14:28;97395.81;;;16.17;77.19
64294;BME280;50636;45.596;5.258;2022-09-29T11:16:58;97391.91;;;15.78;80.08
64294;BME280;50636;45.596;5.258;2022-09-29T11:19:25;97394.78;;;15.46;82.54
64294;BME280;50636;45.596;5.258;2022-09-29T11:22:11;97389.19;;;15.22;84.33
64294;BME280;50636;45.596;5.258;2022-09-29T11:25:04;97402.94;;;15.14;86.18
64294;BME280;50636;45.596;5.258;2022-09-29T11:30:20;97409.00;;;15.04;87.36
64294;BME280;50636;45.596;5.258;2022-09-29T11:32:55;97408.19;;;15.04;87.08
64294;BME280;50636;45.596;5.258;2022-09-29T11:49:41;97418.25;;;15.12;87.08
64294;BME280;50636;45.596;5.258;2022-09-29T11:53:21;97417.78;;;15.46;88.27
64294;BME280;50636;45.596;5.258;2022-09-29T11:55:31;97413.56;;;15.55;87.88
64294;BME280;50636;45.596;5.258;2022-09-29T12:09:01;97414.66;;;15.80;84.67
64294;BME280;50636;45.596;5.258;2022-09-29T12:14:26;97413.59;;;15.91;85.70
64294;BME280;50636;45.596;5.258;2022-09-29T12:17:02;97411.47;;;15.83;84.92
64294;BME280;50636;45.596;5.258;2022-09-29T12:19:31;97405.38;;;15.77;86.31
64294;BME280;50636;45.596;5.258;2022-09-29T12:22:00;97408.56;;;15.84;86.89
64294;BME280;50636;45.596;5.258;2022-09-29T12:24:56;97403.25;;;16.10;87.98
64294;BME280;50636;45.596;5.258;2022-09-29T12:27:42;97413.16;;;16.64;88.34
64294;BME280;50636;45.596;5.258;2022-09-29T12:32:55;97400.97;;;17.63;82.67
64294;BME280;50636;45.596;5.258;2022-09-29T12:35:37;97406.41;;;17.76;81.09
64294;BME280;50636;45.596;5.258;2022-09-29T12:41:28;97398.88;;;17.54;78.59
64294;BME280;50636;45.596;5.258;2022-09-29T12:43:54;97400.81;;;17.83;79.79
64294;BME280;50636;45.596;5.258;2022-09-29T12:46:32;97390.66;;;18.20;76.20
64294;BME280;50636;45.596;5.258;2022-09-29T12:52:01;97377.94;;;18.41;75.35
64294;BME280;50636;45.596;5.258;2022-09-29T12:54:53;97377.72;;;18.13;74.51
64294;BME280;50636;45.596;5.258;2022-09-29T13:03:08;97378.03;;;18.06;73.59
64294;BME280;50636;45.596;5.258;2022-09-29T13:14:07;97370.44;;;18.91;70.58
64294;BME280;50636;45.596;5.258;2022-09-29T13:17:12;97378.34;;;18.96;70.41
64294;BME280;50636;45.596;5.258;2022-09-29T13:23:21;97370.06;;;18.54;69.93
64294;BME280;50636;45.596;5.258;2022-09-29T13:28:45;97366.19;;;19.28;69.52
64294;BME280;50636;45.596;5.258;2022-09-29T13:31:18;97369.38;;;19.63;66.83
64294;BME280;50636;45.596;5.258;2022-09-29T13:33:58;97368.50;;;19.67;66.92
64294;BME280;50636;45.596;5.258;2022-09-29T13:36:31;97370.09;;;19.68;65.81
64294;BME280;50636;45.596;5.258;2022-09-29T13:39:04;97363.72;;;19.83;62.28
64294;BME280;50636;45.596;5.258;2022-09-29T13:41:36;97365.13;;;19.81;61.39
64294;BME280;50636;45.596;5.258;2022-09-29T13:46:43;97365.50;;;19.74;61.73
64294;BME280;50636;45.596;5.258;2022-09-29T13:51:53;97367.50;;;19.96;63.40
64294;BME280;50636;45.596;5.258;2022-09-29T13:54:31;97367.44;;;19.49;62.55
64294;BME280;50636;45.596;5.258;2022-09-29T14:02:39;97368.94;;;18.12;64.82
64294;BME280;50636;45.596;5.258;2022-09-29T14:13:03;97365.84;;;18.05;63.89
64294;BME280;50636;45.596;5.258;2022-09-29T14:15:35;97364.97;;;17.81;62.06
64294;BME280;50636;45.596;5.258;2022-09-29T14:18:05;97370.03;;;17.48;63.77
64294;BME280;50636;45.596;5.258;2022-09-29T14:20:59;97371.72;;;17.68;65.71
64294;BME280;50636;45.596;5.258;2022-09-29T14:26:40;97363.34;;;17.55;62.17
64294;BME280;50636;45.596;5.258;2022-09-29T14:29:12;97365.66;;;17.62;62.28
64294;BME280;50636;45.596;5.258;2022-09-29T14:31:44;97363.41;;;17.80;60.92
64294;BME280;50636;45.596;5.258;2022-09-29T14:34:13;97357.84;;;17.47;60.09
64294;BME280;50636;45.596;5.258;2022-09-29T14:36:41;97352.72;;;17.21;58.97
64294;BME280;50636;45.596;5.258;2022-09-29T14:39:10;97360.44;;;17.17;63.33
64294;BME280;50636;45.596;5.258;2022-09-29T14:41:45;97355.56;;;17.30;64.07
64294;BME280;50636;45.596;5.258;2022-09-29T14:44:21;97349.91;;;17.76;64.37
64294;BME280;50636;45.596;5.258;2022-09-29T14:56:50;97354.03;;;18.16;64.66
64294;BME280;50636;45.596;5.258;2022-09-29T14:59:34;97352.84;;;18.04;63.32
64294;BME280;50636;45.596;5.258;2022-09-29T15:04:47;97349.69;;;18.02;60.62
64294;BME280;50636;45.596;5.258;2022-09-29T15:07:16;97355.38;;;17.55;59.12
64294;BME280;50636;45.596;5.258;2022-09-29T15:09:52;97356.94;;;17.22;57.04
64294;BME280;50636;45.596;5.258;2022-09-29T15:12:25;97359.22;;;17.05;61.08
64294;BME280;50636;45.596;5.258;2022-09-29T15:14:53;97358.41;;;17.04;57.37
64294;BME280;50636;45.596;5.258;2022-09-29T15:17:43;97360.19;;;16.59;58.92
64294;BME280;50636;45.596;5.258;2022-09-29T15:20:31;97363.53;;;16.15;60.69
64294;BME280;50636;45.596;5.258;2022-09-29T15:23:24;97356.94;;;15.97;62.00
64294;BME280;50636;45.596;5.258;2022-09-29T15:25:55;97358.50;;;16.18;64.04
64294;BME280;50636;45.596;5.258;2022-09-29T15:28:36;97357.84;;;16.52;61.95
64294;BME280;50636;45.596;5.258;2022-09-29T15:31:10;97355.41;;;16.66;61.14
64294;BME280;50636;45.596;5.258;2022-09-29T15:33:42;97349.41;;;17.00;59.63
64294;BME280;50636;45.596;5.258;2022-09-29T15:38:40;97357.25;;;17.55;59.58
64294;BME280;50636;45.596;5.258;2022-09-29T15:43:53;97355.94;;;17.82;58.12
64294;BME280;50636;45.596;5.258;2022-09-29T15:46:24;97359.41;;;17.53;57.43
64294;BME280;50636;45.596;5.258;2022-09-29T15:49:11;97361.78;;;17.15;58.23
64294;BME280;50636;45.596;5.258;2022-09-29T15:51:42;97362.91;;;17.04;58.97
64294;BME280;50636;45.596;5.258;2022-09-29T15:54:13;97362.66;;;17.00;60.00
64294;BME280;50636;45.596;5.258;2022-09-29T15:56:39;97363.00;;;17.33;60.81
64294;BME280;50636;45.596;5.258;2022-09-29T15:59:43;97367.00;;;17.94;60.07
64294;BME280;50636;45.596;5.258;2022-09-29T16:02:29;97368.63;;;18.19;56.77
64294;BME280;50636;45.596;5.258;2022-09-29T16:05:01;97368.63;;;18.19;54.55
64294;BME280;50636;45.596;5.258;2022-09-29T16:07:33;97377.63;;;17.94;54.66
64294;BME280;50636;45.596;5.258;2022-09-29T16:10:16;97383.03;;;17.78;53.48
64294;BME280;50636;45.596;5.258;2022-09-29T16:13:04;97387.47;;;17.59;52.40
64294;BME280;50636;45.596;5.258;2022-09-29T16:15:42;97390.03;;;17.35;53.13
64294;BME280;50636;45.596;5.258;2022-09-29T16:18:24;97397.59;;;17.12;53.72